Aeroporto :
LOGIN :

Iscrizione | Disclaimer

   EN    FR    IT 

 










Sommario :    VFR   VFR Marginale   IFR   IFR Intensivo   IFR Molto Intensivo
Visibilità : 
Base nubi : 
>= 8 km
>= 3000ft
5 / 8 km
1000 / 3000 ft
1500m / 5 km
500 / 1000 ft
800 / 1500m
200 / 500 ft
< 800m
< 200 ft
Simboli :   Temporali  Nebbia  Neve Forte  Precipitazioni Forti  Vento > 20 kt
SIGMETs :   Varie  Temporali  Ghiacco  Turbolenza  Onda orograficha  Ceneri Vulcaniche






- Altitudine del aeroporto : 140 ft


ESTL - Ljungbyhed

ULTIMO METAR :
  • 270220Z AUTO 29002KT //// R29L///// NCD M04/M05 Q0998

METARs OBSOLETI :
  • 270150Z AUTO 29003KT //// R29L///// NCD M04/M06 Q0998
  • 270120Z AUTO 29004KT //// R29L///// NCD M03/M04 Q0998
  • 270050Z AUTO 29005KT //// R29L///// NCD M04/M05 Q0997
  • 270020Z AUTO 29005KT //// R29L///// NCD M03/M05 Q0997
  • 262350Z AUTO 29005KT 9999 NCD M04/M05 Q0997

Previsioni scadute.



MetMap, La meteo Aeronautica in un colpo d'occhio ! - Copyright ORBIFLY Dicembre 2007 - Disclaimer

ORBIFLY MET'MAP TEAM :

Programmazione e sviluppo : Alexandra Zaïnal
Concezione : Baudouin d'Aumeries
Aiuto per la programmazione : Marc-Olivier Méhu
Supporto tecnico e logistico : Manuel Goepfert
Aiuto per la traduzione : Arnaldo La Scala

Contatto : metmap@orbifly.com




FONTI E CREDITI :

   NOAA